Time;durP1;ratioP1;P1;durP2;ratioP2;P2;SDS_P1;SDS_P2;PMS_P1;PMS_P2;Temp;Humidity;BMP_temperature;BMP_pressure;BME280_temperature;BME280_humidity;BME280_pressure;Samples;Min_cycle;Max_cycle;Signal;HPM_P1;HPM_P2
2022/07/23 00:02:24;;;;;;;26.35;18.05;;;;;;;;;;5062738;28;20110;-66
2022/07/23 00:05:13;;;;;;;27.33;18.33;;;;;;;;;;5057823;28;20041;-67
2022/07/23 00:07:54;;;;;;;27.00;19.58;;;;;;;;;;5022831;28;20127;-67
2022/07/23 00:10:43;;;;;;;25.30;19.13;;;;;;;;;;5007047;28;20061;-67
2022/07/23 00:13:24;;;;;;;30.77;19.98;;;;;;;;;;5006366;28;20049;-67
2022/07/23 00:16:13;;;;;;;27.77;19.38;;;;;;;;;;5027224;28;20100;-67
2022/07/23 00:18:54;;;;;;;27.02;19.00;;;;;;;;;;5020967;28;20151;-67
2022/07/23 00:21:44;;;;;;;30.33;21.15;;;;;;;;;;5019314;28;20397;-66
2022/07/23 00:24:25;;;;;;;30.83;20.92;;;;;;;;;;5025316;28;20053;-67
2022/07/23 00:27:14;;;;;;;35.33;23.27;;;;;;;;;;5025667;28;20045;-66
2022/07/23 00:29:55;;;;;;;26.85;19.73;;;;;;;;;;5022318;28;20053;-67
2022/07/23 00:33:04;;;;;;;32.60;21.88;;;;;;;;;;5019173;28;20060;-67
2022/07/23 00:35:45;;;;;;;33.63;22.33;;;;;;;;;;5028172;28;20499;-66
2022/07/23 00:38:34;;;;;;;33.15;22.92;;;;;;;;;;5026185;28;20374;-67
2022/07/23 00:41:16;;;;;;;32.25;21.52;;;;;;;;;;5025585;28;20049;-67
2022/07/23 00:44:21;;;;;;;29.88;21.95;;;;;;;;;;5038386;28;20041;-68
2022/07/23 00:47:02;;;;;;;34.40;22.63;;;;;;;;;;5045548;28;20106;-67
2022/07/23 00:49:51;;;;;;;34.53;23.25;;;;;;;;;;5045571;28;20041;-68
2022/07/23 00:52:40;;;;;;;34.50;23.35;;;;;;;;;;5045373;28;20130;-68
2022/07/23 00:55:22;;;;;;;33.13;23.07;;;;;;;;;;5044677;28;20048;-67
2022/07/23 00:58:11;;;;;;;39.58;24.98;;;;;;;;;;5031192;28;20048;-68
2022/07/23 01:00:53;;;;;;;33.65;23.65;;;;;;;;;;5037379;28;20045;-68
2022/07/23 01:03:41;;;;;;;36.47;24.13;;;;;;;;;;5045373;28;20483;-68
2022/07/23 01:06:24;;;;;;;32.15;22.95;;;;;;;;;;5044963;28;20488;-68
2022/07/23 01:09:19;;;;;;;35.25;24.23;;;;;;;;;;5049305;28;20048;-68
2022/07/23 01:12:14;;;;;;;37.38;25.27;;;;;;;;;;5044636;28;20401;-68
2022/07/23 01:15:02;;;;;;;38.40;25.35;;;;;;;;;;5013351;28;20045;-67
2022/07/23 01:17:51;;;;;;;36.88;25.25;;;;;;;;;;5027245;28;20140;-68
2022/07/23 01:20:35;;;;;;;36.78;25.00;;;;;;;;;;5027254;28;20048;-68
2022/07/23 01:23:24;;;;;;;34.33;25.10;;;;;;;;;;5027006;28;20384;-67
2022/07/23 01:26:05;;;;;;;41.30;25.95;;;;;;;;;;5027746;28;20135;-67
2022/07/23 01:28:54;;;;;;;35.75;26.23;;;;;;;;;;5026752;28;20048;-68
2022/07/23 01:31:35;;;;;;;43.25;25.40;;;;;;;;;;5031414;28;20038;-67
2022/07/23 01:34:25;;;;;;;38.78;26.00;;;;;;;;;;5021533;28;20408;-67
2022/07/23 01:37:06;;;;;;;32.35;24.45;;;;;;;;;;5007647;28;20124;-67
2022/07/23 01:39:56;;;;;;;33.60;24.75;;;;;;;;;;5023970;28;20053;-67
2022/07/23 01:42:37;;;;;;;36.55;25.27;;;;;;;;;;5008849;28;20069;-67
2022/07/23 01:45:27;;;;;;;34.72;24.48;;;;;;;;;;5044023;28;20045;-67
2022/07/23 01:48:09;;;;;;;37.60;26.83;;;;;;;;;;5044603;28;20764;-68
2022/07/23 01:51:33;;;;;;;42.95;28.67;;;;;;;;;;5010898;28;20061;-67
2022/07/23 01:54:11;;;;;;;39.25;26.52;;;;;;;;;;5023411;28;20052;-68
2022/07/23 01:57:01;;;;;;;46.13;30.83;;;;;;;;;;5023727;28;20114;-68
2022/07/23 01:59:50;;;;;;;49.45;29.42;;;;;;;;;;5007123;28;20042;-68
2022/07/23 02:02:45;;;;;;;40.67;28.60;;;;;;;;;;5024326;28;20560;-67
2022/07/23 02:05:31;;;;;;;40.38;28.10;;;;;;;;;;4991306;28;20049;-67
2022/07/23 02:08:27;;;;;;;44.83;29.75;;;;;;;;;;5027797;28;20369;-68
2022/07/23 02:11:08;;;;;;;40.03;29.15;;;;;;;;;;5038220;28;20052;-67
2022/07/23 02:13:57;;;;;;;47.15;29.95;;;;;;;;;;5049062;28;20479;-68
2022/07/23 02:16:39;;;;;;;47.03;31.77;;;;;;;;;;5063341;28;20053;-68
2022/07/23 02:19:29;;;;;;;45.58;32.28;;;;;;;;;;5062978;28;20102;-67
2022/07/23 02:22:10;;;;;;;53.72;33.45;;;;;;;;;;5046885;28;20052;-68
2022/07/23 02:24:58;;;;;;;50.00;33.83;;;;;;;;;;5063811;28;20056;-67
2022/07/23 02:27:53;;;;;;;52.47;33.15;;;;;;;;;;5064563;28;20040;-68
2022/07/23 02:30:28;;;;;;;42.25;30.90;;;;;;;;;;5044574;28;20052;-67
2022/07/23 02:33:24;;;;;;;44.63;32.83;;;;;;;;;;5026487;28;20048;-68
2022/07/23 02:35:59;;;;;;;47.33;32.08;;;;;;;;;;5049583;28;20068;-66
2022/07/23 02:38:47;;;;;;;48.95;32.30;;;;;;;;;;5084443;28;20051;-68
2022/07/23 02:41:30;;;;;;;47.30;32.08;;;;;;;;;;5067221;28;20054;-68
2022/07/23 02:44:25;;;;;;;56.10;32.58;;;;;;;;;;5022292;28;20071;-68
2022/07/23 02:47:00;;;;;;;54.13;32.92;;;;;;;;;;5045230;28;20578;-67
2022/07/23 02:49:57;;;;;;;46.50;31.15;;;;;;;;;;5027783;28;20067;-68
2022/07/23 02:52:32;;;;;;;48.90;32.15;;;;;;;;;;5027453;28;20104;-68
2022/07/23 02:55:28;;;;;;;49.92;34.35;;;;;;;;;;5038637;28;20048;-68
2022/07/23 02:58:03;;;;;;;53.80;34.00;;;;;;;;;;5064065;28;20037;-68
2022/07/23 03:00:52;;;;;;;46.65;32.80;;;;;;;;;;5063373;28;20045;-68
2022/07/23 03:03:35;;;;;;;45.00;32.33;;;;;;;;;;5043227;28;20053;-68
2022/07/23 03:06:23;;;;;;;46.70;33.40;;;;;;;;;;5043005;28;20064;-68
2022/07/23 03:09:12;;;;;;;54.63;36.20;;;;;;;;;;5039789;28;20465;-68
2022/07/23 03:12:07;;;;;;;50.33;35.90;;;;;;;;;;5048516;28;20164;-68
2022/07/23 03:14:56;;;;;;;55.45;35.72;;;;;;;;;;5049332;28;20781;-68
2022/07/23 03:17:45;;;;;;;48.88;31.17;;;;;;;;;;5047036;28;20052;-68
2022/07/23 03:20:26;;;;;;;53.25;34.28;;;;;;;;;;5029786;28;20124;-68
2022/07/23 03:23:16;;;;;;;51.05;33.72;;;;;;;;;;5029523;28;20064;-68
2022/07/23 03:25:57;;;;;;;51.92;35.83;;;;;;;;;;5047390;28;20049;-67
2022/07/23 03:28:45;;;;;;;46.35;32.05;;;;;;;;;;5046993;28;20472;-66
2022/07/23 03:31:27;;;;;;;49.60;34.30;;;;;;;;;;5025868;28;20586;-66
2022/07/23 03:34:18;;;;;;;51.20;35.25;;;;;;;;;;5022258;28;20061;-65
2022/07/23 03:36:59;;;;;;;50.38;35.63;;;;;;;;;;5014409;28;20075;-66
2022/07/23 03:39:48;;;;;;;48.67;33.42;;;;;;;;;;5026037;28;20045;-67
2022/07/23 03:42:29;;;;;;;44.65;32.17;;;;;;;;;;5028787;28;20052;-67
2022/07/23 03:45:18;;;;;;;44.92;34.72;;;;;;;;;;5029149;28;20047;-68
2022/07/23 03:47:59;;;;;;;44.38;32.08;;;;;;;;;;5029555;28;20144;-68
2022/07/23 03:50:48;;;;;;;42.65;30.10;;;;;;;;;;5029105;28;20065;-68
2022/07/23 03:53:29;;;;;;;45.10;30.90;;;;;;;;;;5029260;28;20110;-67
2022/07/23 03:56:17;;;;;;;42.65;30.90;;;;;;;;;;5027003;28;20069;-68
2022/07/23 03:58:58;;;;;;;39.22;28.95;;;;;;;;;;5026375;28;20060;-67
2022/07/23 04:01:47;;;;;;;39.42;29.33;;;;;;;;;;5029367;28;20045;-66
2022/07/23 04:04:30;;;;;;;40.58;30.58;;;;;;;;;;5011909;28;20195;-66
2022/07/23 04:07:19;;;;;;;39.13;28.23;;;;;;;;;;5025202;28;20057;-67
2022/07/23 04:10:00;;;;;;;38.65;29.38;;;;;;;;;;5030518;28;20049;-66
2022/07/23 04:12:55;;;;;;;43.28;30.33;;;;;;;;;;5026698;28;20398;-67
2022/07/23 04:15:50;;;;;;;39.58;30.30;;;;;;;;;;5045506;28;20103;-67
2022/07/23 04:18:26;;;;;;;38.33;28.23;;;;;;;;;;5027868;28;20083;-67
2022/07/23 04:21:23;;;;;;;42.95;29.52;;;;;;;;;;5028084;28;20057;-67
2022/07/23 04:24:05;;;;;;;43.20;30.07;;;;;;;;;;5028979;28;20060;-67
2022/07/23 04:27:01;;;;;;;33.67;26.23;;;;;;;;;;5024726;28;20161;-67
2022/07/23 04:29:36;;;;;;;37.88;28.67;;;;;;;;;;5028361;28;20052;-67
2022/07/23 04:32:31;;;;;;;33.95;25.27;;;;;;;;;;5013699;28;20053;-67
2022/07/23 04:35:13;;;;;;;40.38;28.40;;;;;;;;;;5008157;28;20049;-68
2022/07/23 04:38:10;;;;;;;36.03;25.63;;;;;;;;;;5008740;28;20111;-67
2022/07/23 04:40:55;;;;;;;34.13;25.85;;;;;;;;;;5008678;28;20144;-66
2022/07/23 04:43:44;;;;;;;36.75;26.60;;;;;;;;;;5014552;28;20059;-67
2022/07/23 04:46:27;;;;;;;33.15;23.77;;;;;;;;;;5024847;28;20480;-66
2022/07/23 04:49:15;;;;;;;29.02;22.15;;;;;;;;;;5027799;28;20095;-66
2022/07/23 04:52:04;;;;;;;27.58;21.50;;;;;;;;;;5028487;28;20435;-66
2022/07/23 04:54:46;;;;;;;29.75;21.52;;;;;;;;;;5028336;28;20045;-66
2022/07/23 04:57:35;;;;;;;27.08;19.50;;;;;;;;;;5026665;28;20064;-66
2022/07/23 05:00:16;;;;;;;26.00;19.30;;;;;;;;;;5044764;28;20056;-66
2022/07/23 05:03:06;;;;;;;28.08;19.85;;;;;;;;;;5045004;28;20041;-66
2022/07/23 05:05:50;;;;;;;26.40;20.30;;;;;;;;;;5044115;28;20507;-66
2022/07/23 05:08:39;;;;;;;25.67;19.98;;;;;;;;;;5025303;28;20540;-66
2022/07/23 05:11:20;;;;;;;27.60;19.52;;;;;;;;;;5024603;28;20041;-66
2022/07/23 05:14:16;;;;;;;23.67;17.83;;;;;;;;;;5048146;27;20487;-67
2022/07/23 05:17:12;;;;;;;22.50;18.02;;;;;;;;;;5025108;28;20044;-66
2022/07/23 05:20:00;;;;;;;18.35;12.13;;;;;;;;;;5044284;28;20049;-68
2022/07/23 05:22:49;;;;;;;16.73;8.77;;;;;;;;;;5044776;28;20049;-66
2022/07/23 05:25:38;;;;;;;14.35;8.02;;;;;;;;;;5022662;28;20140;-68
2022/07/23 05:28:27;;;;;;;13.52;9.20;;;;;;;;;;5007114;28;20140;-68
2022/07/23 05:31:08;;;;;;;20.20;11.43;;;;;;;;;;5013745;28;20493;-68
2022/07/23 05:33:57;;;;;;;19.98;10.75;;;;;;;;;;5040947;28;20122;-69
2022/07/23 05:36:40;;;;;;;20.05;10.73;;;;;;;;;;5015053;28;20688;-69
2022/07/23 05:39:29;;;;;;;20.95;11.68;;;;;;;;;;5044144;28;20128;-68
2022/07/23 05:42:10;;;;;;;19.23;10.75;;;;;;;;;;5027311;28;20484;-68
2022/07/23 05:44:59;;;;;;;22.33;12.20;;;;;;;;;;5007984;28;20045;-67
2022/07/23 05:47:50;;;;;;;24.08;13.68;;;;;;;;;;5013530;28;20053;-68
2022/07/23 05:50:39;;;;;;;23.00;13.05;;;;;;;;;;5007551;28;20052;-67
2022/07/23 05:53:38;;;;;;;20.33;12.05;;;;;;;;;;5006868;28;20041;-68
2022/07/23 05:56:26;;;;;;;14.65;10.23;;;;;;;;;;5006822;28;20107;-67
2022/07/23 05:59:14;;;;;;;19.13;11.32;;;;;;;;;;5006703;28;20242;-69
2022/07/23 06:01:57;;;;;;;14.32;8.00;;;;;;;;;;5007807;28;20457;-69
2022/07/23 06:04:52;;;;;;;12.68;7.30;;;;;;;;;;5001423;28;20049;-69
2022/07/23 06:07:30;;;;;;;11.63;7.72;;;;;;;;;;5007043;28;20160;-69
2022/07/23 06:10:13;;;;;;;;;;;;;;;;;;5007110;28;20058;-69
2022/07/23 06:12:55;;;;;;;12.88;7.15;;;;;;;;;;5022719;28;19935;-70
2022/07/23 06:15:50;;;;;;;10.52;7.28;;;;;;;;;;5032893;28;20079;-69
2022/07/23 06:18:25;;;;;;;10.80;7.05;;;;;;;;;;5030611;28;20129;-72
2022/07/23 06:21:14;;;;;;;12.90;6.82;;;;;;;;;;5007196;28;20831;-68
2022/07/23 06:24:17;;;;;;;14.20;8.48;;;;;;;;;;5023327;28;20041;-68
2022/07/23 06:27:12;;;;;;;16.00;8.48;;;;;;;;;;5023554;28;20037;-69
2022/07/23 06:29:47;;;;;;;15.77;9.00;;;;;;;;;;4991549;28;20049;-66
2022/07/23 06:32:42;;;;;;;13.18;7.78;;;;;;;;;;5042963;28;20108;-68
2022/07/23 06:35:17;;;;;;;15.32;8.23;;;;;;;;;;5044028;28;20063;-66
2022/07/23 06:38:12;;;;;;;14.13;7.47;;;;;;;;;;5027106;28;20469;-66
2022/07/23 06:40:48;;;;;;;11.27;6.38;;;;;;;;;;5018572;28;20044;-68
2022/07/23 06:43:43;;;;;;;13.02;6.63;;;;;;;;;;5028126;28;20687;-67
2022/07/23 06:46:21;;;;;;;7.78;5.07;;;;;;;;;;5030028;28;20053;-70
2022/07/23 06:49:10;;;;;;;10.50;6.28;;;;;;;;;;5029901;28;20060;-68
2022/07/23 06:51:59;;;;;;;13.23;7.43;;;;;;;;;;5015988;28;20131;-68
2022/07/23 06:54:40;;;;;;;10.90;7.00;;;;;;;;;;5030073;28;20045;-68
2022/07/23 06:57:29;;;;;;;11.05;7.38;;;;;;;;;;5021912;28;20478;-68
2022/07/23 07:00:13;;;;;;;11.23;7.57;;;;;;;;;;5029758;28;20644;-68
2022/07/23 07:03:01;;;;;;;9.65;6.38;;;;;;;;;;5047741;28;20114;-67
2022/07/23 07:05:42;;;;;;;9.70;6.20;;;;;;;;;;5044978;28;20045;-68
2022/07/23 07:08:31;;;;;;;9.85;6.25;;;;;;;;;;5029964;28;20124;-69
2022/07/23 07:11:12;;;;;;;10.70;6.07;;;;;;;;;;5027380;28;20536;-68
2022/07/23 07:14:02;;;;;;;14.07;6.82;;;;;;;;;;5038530;28;20547;-69
2022/07/23 07:16:50;;;;;;;9.48;7.05;;;;;;;;;;5055186;28;20048;-69
2022/07/23 07:19:39;;;;;;;11.43;7.45;;;;;;;;;;5059333;28;20836;-69
2022/07/23 07:22:27;;;;;;;11.57;7.47;;;;;;;;;;5067461;28;20514;-69
2022/07/23 07:25:09;;;;;;;10.63;7.20;;;;;;;;;;5067056;28;20058;-67
2022/07/23 07:27:58;;;;;;;13.80;8.27;;;;;;;;;;5067568;28;20048;-67
2022/07/23 07:30:39;;;;;;;12.30;8.25;;;;;;;;;;5067696;28;20053;-68
2022/07/23 07:33:28;;;;;;;11.82;8.05;;;;;;;;;;5061360;28;20052;-69
2022/07/23 07:36:10;;;;;;;11.20;7.75;;;;;;;;;;5051979;28;20047;-68
2022/07/23 07:38:59;;;;;;;9.63;5.97;;;;;;;;;;5066836;28;20077;-66
2022/07/23 07:41:41;;;;;;;6.35;5.00;;;;;;;;;;5062106;28;20055;-68
2022/07/23 07:44:30;;;;;;;8.75;5.80;;;;;;;;;;5046431;28;20059;-66
2022/07/23 07:47:11;;;;;;;8.57;6.80;;;;;;;;;;5044485;28;20048;-68
2022/07/23 07:50:00;;;;;;;9.68;7.00;;;;;;;;;;5066416;28;20071;-68
2022/07/23 07:52:55;;;;;;;10.68;7.53;;;;;;;;;;5065188;28;20040;-66
2022/07/23 07:55:44;;;;;;;10.88;7.68;;;;;;;;;;5052916;28;20044;-69
2022/07/23 07:58:32;;;;;;;13.65;9.55;;;;;;;;;;5046154;28;20115;-66
2022/07/23 08:01:21;;;;;;;12.13;9.85;;;;;;;;;;5053429;28;20049;-71
2022/07/23 08:04:03;;;;;;;14.45;10.18;;;;;;;;;;5067041;28;20051;-69
2022/07/23 08:06:58;;;;;;;17.65;10.65;;;;;;;;;;5065733;28;20040;-65
2022/07/23 08:09:33;;;;;;;13.05;10.00;;;;;;;;;;5065734;28;20044;-65
2022/07/23 08:12:21;;;;;;;17.55;11.63;;;;;;;;;;5064736;28;20497;-67
2022/07/23 08:15:04;;;;;;;22.40;14.57;;;;;;;;;;5066181;28;20052;-67
2022/07/23 08:18:00;;;;;;;21.77;14.98;;;;;;;;;;5057704;28;20467;-66
2022/07/23 08:20:48;;;;;;;26.23;17.13;;;;;;;;;;5025597;28;20053;-68
2022/07/23 08:23:37;;;;;;;25.80;17.92;;;;;;;;;;5025563;28;20132;-68
2022/07/23 08:26:18;;;;;;;29.33;20.25;;;;;;;;;;5020064;28;20053;-68
2022/07/23 08:29:07;;;;;;;35.13;22.20;;;;;;;;;;5026123;28;20042;-69
2022/07/23 08:31:49;;;;;;;33.45;22.30;;;;;;;;;;5018117;28;20045;-67
2022/07/23 08:34:38;;;;;;;33.22;23.27;;;;;;;;;;5027800;28;20102;-70
2022/07/23 08:37:23;;;;;;;33.40;24.98;;;;;;;;;;5044327;28;20381;-71
2022/07/23 08:40:12;;;;;;;38.08;29.40;;;;;;;;;;5037756;28;20068;-67
2022/07/23 08:42:54;;;;;;;45.45;32.97;;;;;;;;;;5023975;28;20046;-67
2022/07/23 08:45:47;;;;;;;43.45;30.95;;;;;;;;;;5024648;28;20603;-67
2022/07/23 08:48:30;;;;;;;43.58;32.13;;;;;;;;;;5025234;28;20041;-67
2022/07/23 08:51:20;;;;;;;45.33;32.42;;;;;;;;;;5025465;28;20131;-67
2022/07/23 08:54:02;;;;;;;47.80;32.83;;;;;;;;;;5025740;28;20045;-67
2022/07/23 08:56:51;;;;;;;45.63;31.33;;;;;;;;;;5045793;28;20055;-67
2022/07/23 08:59:32;;;;;;;42.65;29.50;;;;;;;;;;5030716;28;20049;-67
2022/07/23 09:02:21;;;;;;;40.72;28.25;;;;;;;;;;5043469;28;20699;-65
2022/07/23 09:05:03;;;;;;;45.28;29.75;;;;;;;;;;5044868;28;20364;-68
2022/07/23 09:08:10;;;;;;;38.63;26.75;;;;;;;;;;5037362;28;20049;-68
2022/07/23 09:11:02;;;;;;;40.17;27.27;;;;;;;;;;5025129;28;20118;-67
2022/07/23 09:13:54;;;;;;;40.13;28.23;;;;;;;;;;5044712;28;20728;-69
2022/07/23 09:16:43;;;;;;;40.05;27.83;;;;;;;;;;5042926;28;20052;-69
2022/07/23 09:19:34;;;;;;;42.85;28.15;;;;;;;;;;5042892;28;20132;-68
2022/07/23 09:22:24;;;;;;;42.10;26.65;;;;;;;;;;5043367;28;20095;-67
2022/07/23 09:25:16;;;;;;;43.50;27.30;;;;;;;;;;5043895;28;20052;-69
2022/07/23 09:28:07;;;;;;;42.00;26.88;;;;;;;;;;5059999;28;20040;-68
2022/07/23 09:30:49;;;;;;;38.78;25.42;;;;;;;;;;5024249;28;20161;-69
2022/07/23 09:33:44;;;;;;;41.08;25.55;;;;;;;;;;5044668;28;20539;-67
2022/07/23 09:36:27;;;;;;;39.90;24.83;;;;;;;;;;5052897;28;20056;-67
2022/07/23 09:39:28;;;;;;;33.25;20.95;;;;;;;;;;5064845;28;20044;-67
2022/07/23 09:42:17;;;;;;;29.60;20.55;;;;;;;;;;5046641;28;20051;-68
2022/07/23 09:45:10;;;;;;;30.13;20.00;;;;;;;;;;5024556;28;20145;-66
2022/07/23 09:48:16;;;;;;;29.27;20.40;;;;;;;;;;5024700;28;20045;-68
2022/07/23 09:51:03;;;;;;;24.70;19.17;;;;;;;;;;5030021;28;20042;-70
2022/07/23 09:53:51;;;;;;;31.38;20.67;;;;;;;;;;5043305;28;20059;-66
2022/07/23 09:56:33;;;;;;;34.03;20.60;;;;;;;;;;5025239;28;20061;-68
2022/07/23 09:59:23;;;;;;;30.35;19.83;;;;;;;;;;5024207;28;20137;-66
2022/07/23 10:02:12;;;;;;;29.00;19.60;;;;;;;;;;5043611;28;20076;-62
2022/07/23 10:05:22;;;;;;;29.33;19.80;;;;;;;;;;5036262;28;20041;-66
2022/07/23 10:08:17;;;;;;;31.35;21.58;;;;;;;;;;5029413;28;20045;-69
2022/07/23 10:11:17;;;;;;;28.83;21.17;;;;;;;;;;4683121;28;10000481;-68
2022/07/23 10:14:19;;;;;;;32.47;23.45;;;;;;;;;;5013815;28;20045;-67
2022/07/23 10:17:07;;;;;;;35.80;25.13;;;;;;;;;;5034068;28;20052;-68
2022/07/23 10:20:05;;;;;;;40.88;24.23;;;;;;;;;;5034971;28;20053;-68
2022/07/23 10:22:42;;;;;;;33.33;22.33;;;;;;;;;;5046034;28;20052;-67
2022/07/23 10:26:03;;;;;;;33.92;22.08;;;;;;;;;;5044810;28;20049;-68
2022/07/23 10:28:38;;;;;;;32.70;21.52;;;;;;;;;;5045145;28;20041;-69
2022/07/23 10:31:41;;;;;;;33.13;21.50;;;;;;;;;;5044178;28;20174;-70
2022/07/23 10:34:41;;;;;;;27.05;19.52;;;;;;;;;;5045262;28;20048;-70
2022/07/23 10:37:55;;;;;;;31.27;20.52;;;;;;;;;;5045679;28;20052;-70
2022/07/23 10:40:31;;;;;;;33.10;22.20;;;;;;;;;;5028288;28;20049;-70
2022/07/23 10:43:22;;;;;;;36.17;23.83;;;;;;;;;;5045307;28;20052;-70
2022/07/23 10:46:34;;;;;;;34.13;22.85;;;;;;;;;;5043241;28;20056;-73
2022/07/23 10:49:36;;;;;;;31.20;22.35;;;;;;;;;;5044487;28;20061;-69
2022/07/23 10:52:22;;;;;;;35.38;22.92;;;;;;;;;;5044741;28;20168;-69
2022/07/23 10:55:16;;;;;;;30.25;21.48;;;;;;;;;;5043786;28;20053;-69
2022/07/23 10:57:55;;;;;;;30.80;22.27;;;;;;;;;;5027048;28;20045;-68
2022/07/23 11:00:43;;;;;;;32.50;22.33;;;;;;;;;;5043320;28;20102;-69
2022/07/23 11:03:42;;;;;;;35.35;23.45;;;;;;;;;;5043790;28;20071;-69
2022/07/23 11:06:55;;;;;;;30.15;20.88;;;;;;;;;;5041501;28;20049;-68
2022/07/23 11:09:43;;;;;;;34.58;22.92;;;;;;;;;;5043613;28;20063;-67
2022/07/23 11:12:38;;;;;;;35.65;23.55;;;;;;;;;;5042911;28;20048;-67
2022/07/23 11:15:14;;;;;;;34.47;23.40;;;;;;;;;;5060702;28;20072;-66
2022/07/23 11:18:02;;;;;;;32.80;22.15;;;;;;;;;;5045549;28;20066;-69
2022/07/23 11:20:45;;;;;;;33.35;23.27;;;;;;;;;;5050162;28;20045;-68
2022/07/23 11:23:54;;;;;;;38.78;23.92;;;;;;;;;;5055022;28;20059;-67
2022/07/23 11:26:44;;;;;;;34.63;23.13;;;;;;;;;;5045220;28;20052;-68
2022/07/23 11:29:33;;;;;;;42.00;25.92;;;;;;;;;;5051546;28;20045;-71
2022/07/23 11:32:15;;;;;;;38.00;26.33;;;;;;;;;;5052500;28;20118;-69
2022/07/23 11:35:25;;;;;;;41.92;26.02;;;;;;;;;;5045083;28;20052;-70
2022/07/23 11:38:04;;;;;;;43.43;27.83;;;;;;;;;;5055109;28;20053;-71
2022/07/23 11:41:00;;;;;;;43.17;27.40;;;;;;;;;;5050801;28;20277;-69
2022/07/23 11:43:36;;;;;;;43.10;28.10;;;;;;;;;;5051168;28;20734;-68
2022/07/23 11:46:24;;;;;;;44.85;28.73;;;;;;;;;;5049170;28;20045;-69
2022/07/23 11:49:09;;;;;;;45.10;28.85;;;;;;;;;;5051731;28;20254;-70
2022/07/23 11:52:14;;;;;;;42.72;29.60;;;;;;;;;;5051616;28;20468;-69
2022/07/23 11:54:54;;;;;;;44.60;31.15;;;;;;;;;;5050681;28;20087;-69
2022/07/23 11:57:43;;;;;;;43.03;30.52;;;;;;;;;;5049424;28;20052;-70
2022/07/23 12:00:33;;;;;;;46.20;30.92;;;;;;;;;;5051472;28;20045;-68
2022/07/23 12:03:21;;;;;;;43.55;30.17;;;;;;;;;;5053277;28;20133;-69
2022/07/23 12:06:10;;;;;;;45.58;29.85;;;;;;;;;;5057738;28;20053;-70
2022/07/23 12:08:52;;;;;;;40.08;29.30;;;;;;;;;;5029816;28;20049;-69
2022/07/23 12:11:40;;;;;;;43.22;30.70;;;;;;;;;;5030328;28;20053;-69
2022/07/23 12:14:25;;;;;;;39.60;27.65;;;;;;;;;;5045444;28;20049;-69
2022/07/23 12:17:14;;;;;;;44.38;28.08;;;;;;;;;;5046143;28;20049;-70
2022/07/23 12:20:10;;;;;;;38.60;27.02;;;;;;;;;;5044842;28;20052;-69
2022/07/23 12:23:00;;;;;;;42.72;28.63;;;;;;;;;;5033173;28;20303;-70
2022/07/23 12:25:50;;;;;;;49.90;30.02;;;;;;;;;;5046211;28;20106;-70
2022/07/23 12:28:37;;;;;;;45.30;31.20;;;;;;;;;;5055848;28;20052;-70
2022/07/23 12:31:32;;;;;;;45.28;32.33;;;;;;;;;;5064553;28;20048;-70
2022/07/23 12:34:14;;;;;;;44.78;31.38;;;;;;;;;;4710006;28;10000095;-66
2022/07/23 12:37:03;;;;;;;41.50;30.27;;;;;;;;;;5052417;28;20210;-68
2022/07/23 12:39:49;;;;;;;41.50;29.58;;;;;;;;;;5048668;28;20147;-66
2022/07/23 12:42:47;;;;;;;42.03;30.13;;;;;;;;;;5050446;28;20156;-70
2022/07/23 12:45:41;;;;;;;45.30;31.73;;;;;;;;;;5041228;28;20122;-69
2022/07/23 12:48:36;;;;;;;41.15;31.23;;;;;;;;;;5043198;28;20057;-69
2022/07/23 12:51:20;;;;;;;48.35;32.10;;;;;;;;;;5044450;28;20050;-67
2022/07/23 12:54:13;;;;;;;42.00;31.85;;;;;;;;;;5040470;28;20072;-69
2022/07/23 12:56:55;;;;;;;43.33;30.65;;;;;;;;;;5040979;28;20049;-70
2022/07/23 12:59:46;;;;;;;45.03;31.48;;;;;;;;;;5025675;28;20549;-66
2022/07/23 13:02:28;;;;;;;42.40;32.33;;;;;;;;;;5025403;28;20798;-67
2022/07/23 13:05:17;;;;;;;47.30;33.08;;;;;;;;;;5041672;28;20146;-70
2022/07/23 13:07:58;;;;;;;48.45;33.63;;;;;;;;;;5060686;28;20050;-69
2022/07/23 13:10:48;;;;;;;51.88;34.40;;;;;;;;;;5046156;28;20143;-68
2022/07/23 13:13:33;;;;;;;51.33;35.75;;;;;;;;;;5063990;28;20059;-68
2022/07/23 13:16:22;;;;;;;53.85;35.40;;;;;;;;;;5043664;28;20052;-67
2022/07/23 13:19:08;;;;;;;57.35;34.72;;;;;;;;;;5060935;28;20311;-67
2022/07/23 13:21:59;;;;;;;48.53;33.85;;;;;;;;;;5060945;28;20063;-68
2022/07/23 13:24:49;;;;;;;49.90;32.65;;;;;;;;;;5062098;28;20072;-68
2022/07/23 13:27:38;;;;;;;45.95;32.35;;;;;;;;;;5062824;28;20481;-69
2022/07/23 13:30:19;;;;;;;45.38;32.67;;;;;;;;;;5054966;28;20594;-69
2022/07/23 13:33:10;;;;;;;50.75;34.35;;;;;;;;;;5064427;28;20419;-69
2022/07/23 13:35:53;;;;;;;46.03;33.58;;;;;;;;;;5060986;28;20040;-69
2022/07/23 13:38:42;;;;;;;50.58;33.85;;;;;;;;;;5063833;28;20040;-71
2022/07/23 13:41:23;;;;;;;43.28;31.83;;;;;;;;;;5046101;28;20056;-69
2022/07/23 13:44:12;;;;;;;38.78;29.27;;;;;;;;;;5016686;28;20076;-70
2022/07/23 13:47:02;;;;;;;35.97;27.35;;;;;;;;;;5044797;28;20045;-71
2022/07/23 13:49:44;;;;;;;32.33;24.35;;;;;;;;;;5044277;28;20048;-68
2022/07/23 13:52:35;;;;;;;32.75;25.05;;;;;;;;;;5062144;28;20041;-70
2022/07/23 13:55:17;;;;;;;34.80;23.67;;;;;;;;;;5023920;28;20041;-69
2022/07/23 13:58:07;;;;;;;27.63;21.30;;;;;;;;;;5045161;28;20052;-70
2022/07/23 14:00:50;;;;;;;30.02;22.15;;;;;;;;;;5044423;28;20499;-70
2022/07/23 14:03:38;;;;;;;29.65;21.92;;;;;;;;;;5029161;28;20053;-70
2022/07/23 14:06:28;;;;;;;30.60;22.10;;;;;;;;;;4699729;28;9999873;-70
2022/07/23 14:09:12;;;;;;;33.05;20.77;;;;;;;;;;5025891;28;20037;-71
2022/07/23 14:12:01;;;;;;;26.52;19.67;;;;;;;;;;5042379;28;20139;-68
2022/07/23 14:14:43;;;;;;;31.90;19.98;;;;;;;;;;5041754;28;20142;-69
2022/07/23 14:17:33;;;;;;;29.08;20.13;;;;;;;;;;5049875;28;20102;-69
2022/07/23 14:20:29;;;;;;;29.77;19.00;;;;;;;;;;5043075;28;20518;-70
2022/07/23 14:23:17;;;;;;;22.60;17.35;;;;;;;;;;5060944;28;20060;-73
2022/07/23 14:26:06;;;;;;;27.95;19.65;;;;;;;;;;5063366;28;20056;-68
2022/07/23 14:28:55;;;;;;;25.73;18.20;;;;;;;;;;5031257;28;20060;-69
2022/07/23 14:31:45;;;;;;;24.17;18.73;;;;;;;;;;5055434;28;20814;-73
2022/07/23 14:34:28;;;;;;;26.58;18.75;;;;;;;;;;5053136;28;20177;-69
2022/07/23 14:37:18;;;;;;;26.17;19.20;;;;;;;;;;5047850;28;20462;-71
2022/07/23 14:40:01;;;;;;;29.40;20.23;;;;;;;;;;5043631;28;20044;-70
2022/07/23 14:42:50;;;;;;;34.80;21.30;;;;;;;;;;5045934;28;20049;-70
2022/07/23 14:45:39;;;;;;;31.85;20.30;;;;;;;;;;5054038;28;20052;-71
2022/07/23 14:48:29;;;;;;;32.67;22.40;;;;;;;;;;5052735;28;20040;-70
2022/07/23 14:51:24;;;;;;;28.20;20.60;;;;;;;;;;5039245;28;20044;-70
2022/07/23 14:54:00;;;;;;;37.15;23.90;;;;;;;;;;5045709;28;20490;-70
2022/07/23 14:56:55;;;;;;;35.53;24.45;;;;;;;;;;5035880;28;20053;-69
2022/07/23 14:59:30;;;;;;;42.38;26.75;;;;;;;;;;5051243;28;20497;-70
2022/07/23 15:02:19;;;;;;;45.40;29.00;;;;;;;;;;5045625;28;20294;-71
2022/07/23 15:05:02;;;;;;;49.55;29.92;;;;;;;;;;5067786;28;20109;-69
2022/07/23 15:07:50;;;;;;;50.15;30.98;;;;;;;;;;5055830;28;20054;-70
2022/07/23 15:10:40;;;;;;;48.20;30.40;;;;;;;;;;5059819;28;20103;-70
2022/07/23 15:13:29;;;;;;;52.95;29.67;;;;;;;;;;5056345;28;20057;-70
2022/07/23 15:16:11;;;;;;;47.92;28.55;;;;;;;;;;5060430;28;20048;-70
2022/07/23 15:19:11;;;;;;;48.50;30.23;;;;;;;;;;5053864;28;20172;-70
2022/07/23 15:21:59;;;;;;;48.42;30.55;;;;;;;;;;5033015;28;20424;-70
2022/07/23 15:24:48;;;;;;;53.13;31.02;;;;;;;;;;5044395;28;20136;-70
2022/07/23 15:27:29;;;;;;;51.78;29.80;;;;;;;;;;5028189;28;20069;-70
2022/07/23 15:30:18;;;;;;;48.17;31.42;;;;;;;;;;5045946;28;20045;-70
2022/07/23 15:33:14;;;;;;;50.95;32.22;;;;;;;;;;5025453;28;20042;-69
2022/07/23 15:35:56;;;;;;;49.25;28.67;;;;;;;;;;5026974;28;20053;-70
2022/07/23 15:38:51;;;;;;;45.03;27.85;;;;;;;;;;5026644;28;20111;-70
2022/07/23 15:41:26;;;;;;;45.00;33.50;;;;;;;;;;5026619;28;20053;-69
2022/07/23 15:44:21;;;;;;;44.60;34.30;;;;;;;;;;5040929;28;20045;-70
2022/07/23 15:47:02;;;;;;;46.97;35.42;;;;;;;;;;5046768;28;20037;-70
2022/07/23 15:49:57;;;;;;;47.85;37.45;;;;;;;;;;5046677;28;20056;-70
2022/07/23 15:52:32;;;;;;;47.17;36.45;;;;;;;;;;5046473;28;20056;-71
2022/07/23 15:55:20;;;;;;;49.28;36.08;;;;;;;;;;5046436;28;20102;-70
2022/07/23 15:58:09;;;;;;;44.92;35.83;;;;;;;;;;5040297;28;20048;-70
2022/07/23 16:00:50;;;;;;;46.30;36.70;;;;;;;;;;5027320;28;20046;-70
2022/07/23 16:03:40;;;;;;;45.92;34.30;;;;;;;;;;5032101;28;20060;-70
2022/07/23 16:06:24;;;;;;;50.33;37.42;;;;;;;;;;5046321;28;20142;-70
2022/07/23 16:09:13;;;;;;;47.58;36.15;;;;;;;;;;5046139;28;20049;-70
2022/07/23 16:11:58;;;;;;;48.83;37.38;;;;;;;;;;5046403;28;20713;-70
2022/07/23 16:14:47;;;;;;;48.15;36.60;;;;;;;;;;5046308;28;20048;-70
2022/07/23 16:17:29;;;;;;;49.05;37.70;;;;;;;;;;5046009;28;20084;-70
2022/07/23 16:20:24;;;;;;;50.40;37.15;;;;;;;;;;5054418;28;20523;-70